createdAt,value
2022-08-19T00:00:51.217Z,4.17
2022-08-19T00:03:18.046Z,4.27
2022-08-19T00:05:44.472Z,3.93
2022-08-19T00:08:10.811Z,4.37
2022-08-19T00:10:37.230Z,3.90
2022-08-19T00:13:05.076Z,5.00
2022-08-19T00:15:31.598Z,4.30
2022-08-19T00:17:57.977Z,4.10
2022-08-19T00:20:24.421Z,3.93
2022-08-19T00:22:51.066Z,4.73
2022-08-19T00:25:17.840Z,4.77
2022-08-19T00:27:44.239Z,5.10
2022-08-19T00:30:11.394Z,5.17
2022-08-19T00:32:39.645Z,4.43
2022-08-19T00:35:06.234Z,4.90
2022-08-19T00:37:33.943Z,4.33
2022-08-19T00:40:00.560Z,4.93
2022-08-19T00:42:29.266Z,4.93
2022-08-19T00:44:55.750Z,5.00
2022-08-19T00:47:22.278Z,5.60
2022-08-19T00:49:52.084Z,4.67
2022-08-19T00:52:32.435Z,4.77
2022-08-19T00:54:58.997Z,5.13
2022-08-19T00:57:30.924Z,4.60
2022-08-19T01:00:02.554Z,5.07
2022-08-19T01:02:31.143Z,5.17
2022-08-19T01:04:57.819Z,5.57
2022-08-19T01:07:24.405Z,4.80
2022-08-19T01:09:51.462Z,4.70
2022-08-19T01:12:19.030Z,5.20
2022-08-19T01:14:48.042Z,5.40
2022-08-19T01:17:15.607Z,5.70
2022-08-19T01:19:44.826Z,5.80
2022-08-19T01:22:33.700Z,5.17
2022-08-19T01:25:00.559Z,5.40
2022-08-19T01:27:26.996Z,5.27
2022-08-19T01:29:56.689Z,5.47
2022-08-19T01:32:34.036Z,4.67
2022-08-19T01:35:02.832Z,5.77
2022-08-19T01:37:29.863Z,6.53
2022-08-19T01:39:56.239Z,6.20
2022-08-19T01:42:23.096Z,4.77
2022-08-19T01:44:57.659Z,6.03
2022-08-19T01:47:24.159Z,5.10
2022-08-19T01:49:50.598Z,5.77
2022-08-19T01:52:17.021Z,4.70
2022-08-19T01:54:43.383Z,5.53
2022-08-19T01:57:12.959Z,5.63
2022-08-19T01:59:41.930Z,5.23
2022-08-19T02:02:09.306Z,5.63
2022-08-19T02:04:36.619Z,5.10
2022-08-19T02:07:03.452Z,5.57
2022-08-19T02:09:31.160Z,5.87
2022-08-19T02:11:57.530Z,6.00
2022-08-19T02:14:23.969Z,5.60
2022-08-19T02:16:50.339Z,6.20
2022-08-19T02:19:16.799Z,6.57
2022-08-19T02:21:44.493Z,5.90
2022-08-19T02:24:11.010Z,6.27
2022-08-19T02:26:37.429Z,5.63
2022-08-19T02:29:04.458Z,6.07
2022-08-19T02:31:30.942Z,7.00
2022-08-19T02:33:57.425Z,7.53
2022-08-19T02:36:25.390Z,6.53
2022-08-19T02:38:55.049Z,7.10
2022-08-19T02:41:32.102Z,6.90
2022-08-19T02:44:29.534Z,6.57
2022-08-19T02:46:46.931Z,6.87
2022-08-19T02:49:13.824Z,6.33
2022-08-19T02:51:42.018Z,7.43
2022-08-19T02:54:11.361Z,7.33
2022-08-19T02:56:38.759Z,5.90
2022-08-19T02:59:11.401Z,5.90
2022-08-19T03:01:41.362Z,5.67
2022-08-19T03:04:08.984Z,5.90
2022-08-19T03:06:38.367Z,6.10
2022-08-19T03:09:04.802Z,6.77
2022-08-19T03:11:33.106Z,6.40
2022-08-19T03:14:00.955Z,6.37
2022-08-19T03:16:29.382Z,6.50
2022-08-19T03:19:01.082Z,6.17
2022-08-19T03:21:33.076Z,6.67
2022-08-19T03:24:02.812Z,5.90
2022-08-19T03:26:30.748Z,6.60
2022-08-19T03:28:57.817Z,6.40
2022-08-19T03:31:41.562Z,7.10
2022-08-19T03:34:18.916Z,6.90
2022-08-19T03:36:46.655Z,7.13
2022-08-19T03:39:13.480Z,7.13
2022-08-19T03:41:44.429Z,6.90
2022-08-19T03:44:16.826Z,6.67
2022-08-19T03:46:45.759Z,7.60
2022-08-19T03:49:14.427Z,6.47
2022-08-19T03:51:41.932Z,7.07
2022-08-19T03:54:10.576Z,7.63
2022-08-19T03:56:39.140Z,9.37
2022-08-19T03:59:07.612Z,9.70
2022-08-19T04:01:35.345Z,10.27
2022-08-19T04:04:03.463Z,9.27
2022-08-19T04:06:32.979Z,8.13
2022-08-19T04:09:01.577Z,8.77
2022-08-19T04:11:43.960Z,8.70
2022-08-19T04:14:13.340Z,8.87
2022-08-19T04:16:40.068Z,9.67
2022-08-19T04:19:07.557Z,9.23
2022-08-19T04:21:34.315Z,7.83
2022-08-19T04:24:00.867Z,7.10
2022-08-19T04:26:28.714Z,7.90
2022-08-19T04:28:56.660Z,8.53
2022-08-19T04:31:26.856Z,8.83
2022-08-19T04:34:05.058Z,9.13
2022-08-19T04:36:33.117Z,10.60
2022-08-19T04:39:00.853Z,9.17
2022-08-19T04:41:46.051Z,7.47
2022-08-19T04:44:13.380Z,7.33
2022-08-19T04:46:50.993Z,7.90
2022-08-19T04:49:22.679Z,9.83
2022-08-19T04:51:49.643Z,9.10
2022-08-19T04:54:37.119Z,9.07
2022-08-19T04:57:07.454Z,7.97
2022-08-19T04:59:34.409Z,8.73
2022-08-19T05:02:00.784Z,9.87
2022-08-19T05:04:27.115Z,10.20
2022-08-19T05:06:54.201Z,8.30
2022-08-19T05:09:25.910Z,8.57
2022-08-19T05:11:53.724Z,7.67
2022-08-19T05:14:21.891Z,8.63
2022-08-19T05:16:48.263Z,9.00
2022-08-19T05:19:33.600Z,9.67
2022-08-19T05:22:20.041Z,9.13
2022-08-19T05:25:02.739Z,9.10
2022-08-19T05:27:33.350Z,9.07
2022-08-19T05:30:00.421Z,8.97
2022-08-19T05:32:27.047Z,10.77
2022-08-19T05:34:53.520Z,9.00
2022-08-19T05:37:19.955Z,9.83
2022-08-19T05:39:50.913Z,10.53
2022-08-19T05:42:17.823Z,9.90
2022-08-19T05:44:49.975Z,9.00
2022-08-19T05:47:16.538Z,11.03
2022-08-19T05:49:43.557Z,10.37
2022-08-19T05:52:11.680Z,9.57
2022-08-19T05:54:40.975Z,10.30
2022-08-19T05:57:08.454Z,11.60
2022-08-19T05:59:39.135Z,12.27
2022-08-19T06:02:07.479Z,14.93
2022-08-19T06:04:34.105Z,14.00
2022-08-19T06:07:02.363Z,15.63
2022-08-19T06:09:39.578Z,14.90
2022-08-19T06:12:06.315Z,14.93
2022-08-19T06:14:35.473Z,14.53
2022-08-19T06:17:07.552Z,14.93
2022-08-19T06:19:34.610Z,15.17
2022-08-19T06:22:07.501Z,14.73
2022-08-19T06:24:33.833Z,14.83
2022-08-19T06:27:01.450Z,13.70
2022-08-19T06:29:28.678Z,13.90
2022-08-19T06:31:57.558Z,14.40
2022-08-19T06:34:24.305Z,15.37
2022-08-19T06:36:51.995Z,16.80
2022-08-19T06:39:22.071Z,16.83
2022-08-19T06:41:52.469Z,17.10
2022-08-19T06:44:21.474Z,17.37
2022-08-19T06:46:54.628Z,17.27
2022-08-19T06:49:22.483Z,16.23
2022-08-19T06:51:49.851Z,15.73
2022-08-19T06:54:20.148Z,15.87
2022-08-19T06:56:47.478Z,16.13
2022-08-19T06:59:16.195Z,16.43
2022-08-19T07:01:46.640Z,16.70
2022-08-19T07:04:13.567Z,16.77
2022-08-19T07:06:44.141Z,16.63
2022-08-19T07:09:12.260Z,16.83
2022-08-19T07:11:38.678Z,17.43
2022-08-19T07:14:07.375Z,19.27
2022-08-19T07:16:46.634Z,16.10
2022-08-19T07:19:16.111Z,17.20
2022-08-19T07:21:42.993Z,15.97
2022-08-19T07:24:09.568Z,15.30
2022-08-19T07:26:42.205Z,15.03
2022-08-19T07:29:09.611Z,16.27
2022-08-19T07:31:37.338Z,14.90
2022-08-19T07:34:07.464Z,14.40
2022-08-19T07:36:34.787Z,14.30
2022-08-19T07:39:02.441Z,13.80
2022-08-19T07:41:32.159Z,13.90
2022-08-19T07:44:02.849Z,13.57
2022-08-19T07:46:31.190Z,12.80
2022-08-19T07:48:57.744Z,12.63
2022-08-19T07:51:36.726Z,13.60
2022-08-19T07:54:04.273Z,12.77
2022-08-19T07:56:30.779Z,13.30
2022-08-19T08:01:29.386Z,13.43
2022-08-19T08:04:16.011Z,13.80
2022-08-19T08:07:01.281Z,14.97
2022-08-19T08:09:32.026Z,13.53
2022-08-19T08:12:05.079Z,14.23
2022-08-19T08:14:39.965Z,18.37
2022-08-19T08:17:11.796Z,15.43
2022-08-19T08:19:38.735Z,15.13
2022-08-19T08:22:07.098Z,14.73
2022-08-19T08:24:34.487Z,15.83
2022-08-19T08:27:01.916Z,16.47
2022-08-19T08:29:34.628Z,14.67
2022-08-19T08:32:02.388Z,15.27
2022-08-19T08:34:28.730Z,16.50
2022-08-19T08:36:55.091Z,15.70
2022-08-19T08:39:22.176Z,13.37
2022-08-19T08:42:02.790Z,14.53
2022-08-19T08:44:37.039Z,14.30
2022-08-19T08:47:05.122Z,13.47
2022-08-19T08:49:52.927Z,14.03
2022-08-19T08:52:24.668Z,15.80
2022-08-19T08:54:59.523Z,15.77
2022-08-19T08:57:25.917Z,13.53
2022-08-19T08:59:56.895Z,13.90
2022-08-19T09:02:24.764Z,13.63
2022-08-19T09:04:51.264Z,14.43
2022-08-19T09:07:35.283Z,13.50
2022-08-19T09:10:25.984Z,12.80
2022-08-19T09:13:19.116Z,12.73
2022-08-19T09:15:53.967Z,13.67
2022-08-19T09:18:20.748Z,13.40
2022-08-19T09:20:48.535Z,13.33
2022-08-19T09:23:15.224Z,13.10
2022-08-19T09:25:41.821Z,12.53
2022-08-19T09:28:15.526Z,12.23
2022-08-19T09:30:53.566Z,11.43
2022-08-19T09:33:20.735Z,12.17
2022-08-19T09:35:53.094Z,12.33
2022-08-19T09:38:20.231Z,13.17
2022-08-19T09:40:47.492Z,13.47
2022-08-19T09:43:13.916Z,12.57
2022-08-19T09:45:40.278Z,15.17
2022-08-19T09:48:07.076Z,14.77
2022-08-19T09:50:35.882Z,13.40
2022-08-19T09:53:02.234Z,13.37
2022-08-19T09:55:31.726Z,14.13
2022-08-19T09:58:01.710Z,14.23
2022-08-19T10:00:28.454Z,12.53
2022-08-19T10:02:54.795Z,13.00
2022-08-19T10:05:42.368Z,12.63
2022-08-19T10:08:13.009Z,12.33
2022-08-19T10:10:40.044Z,14.40
2022-08-19T10:13:09.712Z,13.07
2022-08-19T10:15:47.828Z,12.70
2022-08-19T10:18:18.568Z,11.23
2022-08-19T10:20:51.407Z,12.53
2022-08-19T10:23:20.719Z,13.10
2022-08-19T10:25:48.717Z,12.70
2022-08-19T10:28:15.311Z,12.77
2022-08-19T10:30:42.751Z,13.10
2022-08-19T10:33:10.999Z,11.27
2022-08-19T10:35:42.603Z,12.20
2022-08-19T10:38:22.727Z,12.83
2022-08-19T10:41:07.517Z,13.67
2022-08-19T10:43:38.767Z,12.73
2022-08-19T10:46:09.577Z,12.93
2022-08-19T10:48:42.046Z,13.80
2022-08-19T10:51:27.331Z,13.33
2022-08-19T10:53:54.091Z,13.47
2022-08-19T10:56:38.843Z,11.90
2022-08-19T10:59:05.296Z,12.67
2022-08-19T11:01:33.968Z,13.80
2022-08-19T11:04:02.129Z,13.70
2022-08-19T11:06:28.924Z,13.43
2022-08-19T11:08:55.993Z,16.10
2022-08-19T11:11:23.398Z,14.48
2022-08-19T11:13:50.862Z,13.93
2022-08-19T11:16:18.696Z,15.32
2022-08-19T11:18:47.781Z,15.27
2022-08-19T11:21:19.811Z,15.80
2022-08-19T11:23:48.074Z,15.03
2022-08-19T11:26:16.414Z,14.87
2022-08-19T11:28:43.487Z,15.93
2022-08-19T11:31:12.925Z,15.97
2022-08-19T11:33:39.782Z,16.50
2022-08-19T11:36:06.253Z,14.80
2022-08-19T11:38:32.684Z,15.73
2022-08-19T11:41:00.113Z,14.73
2022-08-19T11:43:27.653Z,16.85
2022-08-19T11:45:55.312Z,14.68
2022-08-19T11:48:23.303Z,16.23
2022-08-19T11:50:51.147Z,14.88
2022-08-19T11:53:21.018Z,16.25
2022-08-19T11:55:56.942Z,18.30
2022-08-19T11:58:23.764Z,16.15
2022-08-19T12:00:50.171Z,15.07
2022-08-19T12:03:16.956Z,14.32
2022-08-19T12:05:43.321Z,14.85
2022-08-19T12:08:09.664Z,15.25
2022-08-19T12:10:36.251Z,13.45
2022-08-19T12:13:02.873Z,12.95
2022-08-19T12:15:29.952Z,11.48
2022-08-19T12:18:05.144Z,10.93
2022-08-19T12:20:31.908Z,11.82
2022-08-19T12:23:02.057Z,11.48
2022-08-19T12:25:28.351Z,12.73
2022-08-19T12:27:57.504Z,10.90
2022-08-19T12:30:24.207Z,11.23
2022-08-19T12:32:52.021Z,11.13
2022-08-19T12:35:20.827Z,11.68
2022-08-19T12:37:56.759Z,11.75
2022-08-19T12:40:26.303Z,10.80
2022-08-19T12:42:52.844Z,10.32
2022-08-19T12:45:20.035Z,8.70
2022-08-19T12:47:47.769Z,8.05
2022-08-19T12:50:16.149Z,10.10
2022-08-19T12:52:43.186Z,8.63
2022-08-19T12:55:10.149Z,9.10
2022-08-19T12:57:36.624Z,8.63
2022-08-19T13:00:23.415Z,8.00
2022-08-19T13:02:52.711Z,6.80
2022-08-19T13:05:27.241Z,7.38
2022-08-19T13:07:56.777Z,6.15
2022-08-19T13:10:25.638Z,5.97
2022-08-19T13:12:52.328Z,6.32
2022-08-19T13:15:23.958Z,6.22
2022-08-19T13:17:51.899Z,6.50
2022-08-19T13:20:20.951Z,7.60
2022-08-19T13:22:48.743Z,6.32
2022-08-19T13:25:18.373Z,6.55
2022-08-19T13:27:45.038Z,6.03
2022-08-19T13:30:30.935Z,5.63
2022-08-19T13:33:12.782Z,5.68
2022-08-19T13:35:44.141Z,5.25
2022-08-19T13:38:11.884Z,5.15
2022-08-19T13:40:39.176Z,5.70
2022-08-19T13:43:13.547Z,5.75
2022-08-19T13:45:50.939Z,5.07
2022-08-19T13:48:17.381Z,5.47
2022-08-19T13:50:47.645Z,5.40
2022-08-19T13:53:13.966Z,5.40
2022-08-19T13:55:42.990Z,5.20
2022-08-19T13:58:09.651Z,5.40
2022-08-19T14:00:37.770Z,6.13
2022-08-19T14:03:09.008Z,5.13
2022-08-19T14:05:35.965Z,5.25
2022-08-19T14:08:02.710Z,5.30
2022-08-19T14:10:31.583Z,4.90
2022-08-19T14:13:00.684Z,5.50
2022-08-19T14:15:28.240Z,4.63
2022-08-19T14:17:54.977Z,5.78
2022-08-19T14:20:26.203Z,5.90
2022-08-19T14:22:53.852Z,5.75
2022-08-19T14:25:24.151Z,5.88
2022-08-19T14:27:50.922Z,6.00
2022-08-19T14:30:20.906Z,5.47
2022-08-19T14:32:47.409Z,5.93
2022-08-19T14:35:15.697Z,5.32
2022-08-19T14:37:46.053Z,5.55
2022-08-19T14:40:15.523Z,6.55
2022-08-19T14:42:42.703Z,6.45
2022-08-19T14:45:10.382Z,6.63
2022-08-19T14:47:36.766Z,6.43
2022-08-19T14:50:08.672Z,7.15
2022-08-19T14:52:37.174Z,7.22
2022-08-19T14:55:07.672Z,7.75
2022-08-19T14:57:34.817Z,7.72
2022-08-19T15:00:01.290Z,8.32
2022-08-19T15:02:34.824Z,8.35
2022-08-19T15:05:01.491Z,8.32
2022-08-19T15:07:29.578Z,8.57
2022-08-19T15:09:56.545Z,8.95
2022-08-19T15:12:23.390Z,8.20
2022-08-19T15:14:53.649Z,8.60
2022-08-19T15:17:25.766Z,8.50
2022-08-19T15:20:10.813Z,8.05
2022-08-19T15:22:37.859Z,8.05
2022-08-19T15:25:07.697Z,7.07
2022-08-19T15:27:35.062Z,7.65
2022-08-19T15:30:01.857Z,8.18
2022-08-19T15:32:28.935Z,7.47
2022-08-19T15:34:55.342Z,6.80
2022-08-19T15:37:25.068Z,7.32
2022-08-19T15:39:51.806Z,6.80
2022-08-19T15:42:29.494Z,6.28
2022-08-19T15:45:00.400Z,6.60
2022-08-19T15:47:35.459Z,5.85
2022-08-19T15:50:15.001Z,6.50
2022-08-19T15:52:50.387Z,5.93
2022-08-19T15:55:33.131Z,5.50
2022-08-19T15:58:28.648Z,6.28
2022-08-19T16:01:20.297Z,6.45
2022-08-19T16:04:14.279Z,6.07
2022-08-19T16:06:46.226Z,6.55
2022-08-19T16:09:13.044Z,6.80
2022-08-19T16:11:39.876Z,7.45
2022-08-19T16:14:09.133Z,6.95
2022-08-19T16:16:35.607Z,7.45
2022-08-19T16:19:03.686Z,7.75
2022-08-19T16:21:33.313Z,6.78
2022-08-19T16:24:05.587Z,6.40
2022-08-19T16:26:32.625Z,7.00
2022-08-19T16:29:00.761Z,7.60
2022-08-19T16:31:28.255Z,6.45
2022-08-19T16:33:56.097Z,7.50
2022-08-19T16:36:25.341Z,8.38
2022-08-19T16:38:53.564Z,7.45
2022-08-19T16:41:22.127Z,8.32
2022-08-19T16:43:52.463Z,7.53
2022-08-19T16:46:27.027Z,8.25
2022-08-19T16:48:53.810Z,7.47
2022-08-19T16:51:21.380Z,7.35
2022-08-19T16:53:47.686Z,7.22
2022-08-19T16:56:14.476Z,7.60
2022-08-19T16:58:41.063Z,7.13
2022-08-19T17:01:10.440Z,7.25
2022-08-19T17:03:37.568Z,7.60
2022-08-19T17:06:18.373Z,7.47
2022-08-19T17:08:49.736Z,7.63
2022-08-19T17:11:18.467Z,6.68
2022-08-19T17:13:47.893Z,7.32
2022-08-19T17:16:15.231Z,7.85
2022-08-19T17:18:41.593Z,7.55
2022-08-19T17:21:07.963Z,6.68
2022-08-19T17:23:43.031Z,6.90
2022-08-19T17:26:17.238Z,7.07
2022-08-19T17:28:45.490Z,6.90
2022-08-19T17:31:12.016Z,7.45
2022-08-19T17:33:41.206Z,7.03
2022-08-19T17:36:08.536Z,7.15
2022-08-19T17:38:35.823Z,7.38
2022-08-19T17:41:05.886Z,7.10
2022-08-19T17:43:40.072Z,6.80
2022-08-19T17:46:17.745Z,6.25
2022-08-19T17:48:47.417Z,6.57
2022-08-19T17:51:18.467Z,6.78
2022-08-19T17:53:50.534Z,6.57
2022-08-19T17:56:18.008Z,7.05
2022-08-19T17:58:46.608Z,6.22
2022-08-19T18:01:24.436Z,6.53
2022-08-19T18:03:51.541Z,6.72
2022-08-19T18:06:17.925Z,6.57
2022-08-19T18:08:49.023Z,6.25
2022-08-19T18:11:16.776Z,6.32
2022-08-19T18:13:43.211Z,6.60
2022-08-19T18:16:11.210Z,6.82
2022-08-19T18:18:42.233Z,7.20
2022-08-19T18:21:09.098Z,6.83
2022-08-19T18:23:43.989Z,7.20
2022-08-19T18:26:12.609Z,6.67
2022-08-19T18:28:39.794Z,7.53
2022-08-19T18:31:16.932Z,7.40
2022-08-19T18:33:44.627Z,7.80
2022-08-19T18:36:11.351Z,8.43
2022-08-19T18:38:56.503Z,7.90
2022-08-19T18:41:41.322Z,7.60
2022-08-19T18:44:26.151Z,8.47
2022-08-19T18:47:13.934Z,8.90
2022-08-19T18:49:40.468Z,7.97
2022-08-19T18:52:06.874Z,9.13
2022-08-19T18:54:33.310Z,9.27
2022-08-19T18:57:00.113Z,9.33
2022-08-19T18:59:27.656Z,9.80
2022-08-19T19:01:57.098Z,10.17
2022-08-19T19:04:27.248Z,9.33
2022-08-19T19:06:53.742Z,10.13
2022-08-19T19:09:23.212Z,9.10
2022-08-19T19:11:53.865Z,8.43
2022-08-19T19:14:48.524Z,8.97
2022-08-19T19:17:16.083Z,8.47
2022-08-19T19:19:43.888Z,7.50
2022-08-19T19:22:13.135Z,6.70
2022-08-19T19:24:44.105Z,7.47
2022-08-19T19:27:12.418Z,7.47
2022-08-19T19:29:39.846Z,7.17
2022-08-19T19:32:11.124Z,8.10
2022-08-19T19:34:39.499Z,8.33
2022-08-19T19:37:06.090Z,7.93
2022-08-19T19:39:45.903Z,7.43
2022-08-19T19:42:20.602Z,7.13
2022-08-19T19:44:48.767Z,6.70
2022-08-19T19:47:17.330Z,6.90
2022-08-19T19:50:03.816Z,6.27
2022-08-19T19:52:31.307Z,6.33
2022-08-19T19:54:57.739Z,6.67
2022-08-19T19:57:26.403Z,6.50
2022-08-19T19:59:54.057Z,7.13
2022-08-19T20:02:21.807Z,6.93
2022-08-19T20:04:48.718Z,7.13
2022-08-19T20:07:15.141Z,6.73
2022-08-19T20:09:58.890Z,7.80
2022-08-19T20:12:26.407Z,6.70
2022-08-19T20:14:52.882Z,7.20
2022-08-19T20:17:20.638Z,6.70
2022-08-19T20:19:47.747Z,7.43
2022-08-19T20:22:14.346Z,7.60
2022-08-19T20:24:42.312Z,7.13
2022-08-19T20:27:09.040Z,7.53
2022-08-19T20:33:08.388Z,7.10
2022-08-19T20:35:35.572Z,7.87
2022-08-19T20:38:03.592Z,7.80
2022-08-19T20:40:30.326Z,7.77
2022-08-19T20:42:57.429Z,7.13
2022-08-19T20:45:32.278Z,7.07
2022-08-19T20:48:02.566Z,6.70
2022-08-19T20:50:30.469Z,6.60
2022-08-19T20:52:57.189Z,6.73
2022-08-19T20:55:23.849Z,6.33
2022-08-19T20:57:51.496Z,6.07
2022-08-19T21:00:17.995Z,6.37
2022-08-19T21:02:44.279Z,6.13
2022-08-19T21:05:10.873Z,6.30
2022-08-19T21:07:39.329Z,5.63
2022-08-19T21:10:06.762Z,5.63
2022-08-19T21:12:33.095Z,5.23
2022-08-19T21:14:59.402Z,4.93
2022-08-19T21:17:25.901Z,4.70
2022-08-19T21:19:52.286Z,4.77
2022-08-19T21:22:18.647Z,5.20
2022-08-19T21:24:45.125Z,5.63
2022-08-19T21:27:11.626Z,5.03
2022-08-19T21:29:40.049Z,5.40
2022-08-19T21:32:06.821Z,5.33
2022-08-19T21:34:33.294Z,5.37
2022-08-19T21:36:59.751Z,4.63
2022-08-19T21:39:26.175Z,4.73
2022-08-19T21:41:52.680Z,3.87
2022-08-19T21:44:18.978Z,5.10
2022-08-19T21:46:45.379Z,4.23
2022-08-19T21:49:16.942Z,3.90
2022-08-19T21:51:43.327Z,4.43
2022-08-19T21:54:14.198Z,4.70
2022-08-19T21:56:40.791Z,5.67
2022-08-19T21:59:07.577Z,4.80
2022-08-19T22:01:34.269Z,5.50
2022-08-19T22:04:00.722Z,5.77
2022-08-19T22:06:27.095Z,5.60
2022-08-19T22:08:56.409Z,5.70
2022-08-19T22:11:23.878Z,5.33
2022-08-19T22:13:53.647Z,5.67
2022-08-19T22:16:21.352Z,6.33
2022-08-19T22:18:50.532Z,7.47
2022-08-19T22:21:22.615Z,7.40
2022-08-19T22:24:06.303Z,6.90
2022-08-19T22:26:32.620Z,7.27
2022-08-19T22:29:00.638Z,7.73
2022-08-19T22:31:28.433Z,7.17
2022-08-19T22:33:55.790Z,6.30
2022-08-19T22:36:22.070Z,7.63
2022-08-19T22:38:48.425Z,7.17
2022-08-19T22:41:16.166Z,7.17
2022-08-19T22:43:42.901Z,6.00
2022-08-19T22:46:17.082Z,5.97
2022-08-19T22:48:44.190Z,6.30
2022-08-19T22:51:29.181Z,6.03
2022-08-19T22:53:57.091Z,6.77
2022-08-19T22:56:23.572Z,6.50
2022-08-19T22:58:52.904Z,5.53
2022-08-19T23:01:27.433Z,7.30
2022-08-19T23:03:59.379Z,7.90
2022-08-19T23:06:31.224Z,7.63
2022-08-19T23:09:00.410Z,7.20
2022-08-19T23:11:26.804Z,8.33
2022-08-19T23:13:53.456Z,8.07
2022-08-19T23:16:19.768Z,9.00
2022-08-19T23:18:46.757Z,9.47
2022-08-19T23:21:13.115Z,9.70
2022-08-19T23:23:39.828Z,8.47
2022-08-19T23:26:06.202Z,9.67
2022-08-19T23:28:56.787Z,10.33
2022-08-19T23:31:25.805Z,9.87
2022-08-19T23:33:53.079Z,9.33
2022-08-19T23:36:19.886Z,9.47
2022-08-19T23:38:48.605Z,9.67
2022-08-19T23:41:17.533Z,9.93
2022-08-19T23:43:44.343Z,10.77
2022-08-19T23:46:13.372Z,11.13
2022-08-19T23:48:39.999Z,10.53
2022-08-19T23:51:10.115Z,10.43
2022-08-19T23:53:38.194Z,11.63
2022-08-19T23:56:05.105Z,11.13
2022-08-19T23:58:31.863Z,10.87
